RRR4238 KMSY-KBLH
Flight info
| Callsign | RRR4238 |
|---|---|
| Flight time | N/A |
| Altitude | 32000 |
| Route | LFT DCT LCH J2 IAH J86 CUZZZ DCT SPURS DCT KEMPL J2 FST DCT TXSAS DCT DMN Q180 WOBUG DCT ZEBOL DCT SODSE |
| Aircraft | A400/H-SGHIRWXY/LB1 |
Departure
| Time | N/A |
|---|---|
| Airport | Louis Armstrong New Orleans International Airport (KMSY) |
Arrival
| Time | 2026-05-06 15:40 |
|---|---|
| Airport | Blythe Airport (KBLH) |
| Time | Latitude | Longitude | Altitude | Speed | Heading |
|---|---|---|---|---|---|
| 2026-05-06 15:08 | 32.93453 | -111.47263 | 31999 ft | 358 kts | 273° |
| 2026-05-06 15:08 | 32.93814 | -111.50203 | 31999 ft | 358 kts | 273° |
| 2026-05-06 15:09 | 32.94534 | -111.56083 | 31998 ft | 358 kts | 273° |
| 2026-05-06 15:09 | 32.95252 | -111.61966 | 31999 ft | 358 kts | 273° |
| 2026-05-06 15:10 | 32.95961 | -111.67807 | 32000 ft | 358 kts | 273° |
| 2026-05-06 15:10 | 32.96673 | -111.73689 | 31999 ft | 358 kts | 273° |
| 2026-05-06 15:11 | 32.97381 | -111.79565 | 31996 ft | 358 kts | 273° |
| 2026-05-06 15:11 | 32.98087 | -111.85459 | 31996 ft | 362 kts | 273° |
| 2026-05-06 15:12 | 32.98798 | -111.91414 | 31995 ft | 363 kts | 273° |
| 2026-05-06 15:12 | 32.99511 | -111.97392 | 32010 ft | 365 kts | 274° |
| 2026-05-06 15:13 | 33.00225 | -112.03420 | 32003 ft | 370 kts | 274° |
| 2026-05-06 15:13 | 33.00943 | -112.09506 | 32008 ft | 371 kts | 274° |
| 2026-05-06 15:14 | 33.01659 | -112.15587 | 32002 ft | 372 kts | 274° |
| 2026-05-06 15:14 | 33.02377 | -112.21731 | 32005 ft | 374 kts | 274° |
| 2026-05-06 15:15 | 33.03090 | -112.27842 | 32008 ft | 375 kts | 274° |
| 2026-05-06 15:15 | 33.03806 | -112.34010 | 32016 ft | 375 kts | 274° |
| 2026-05-06 15:16 | 33.04518 | -112.40174 | 32014 ft | 375 kts | 274° |
| 2026-05-06 15:16 | 33.05222 | -112.46301 | 32016 ft | 375 kts | 275° |
| 2026-05-06 15:17 | 33.06165 | -112.52482 | 32015 ft | 383 kts | 282° |
| 2026-05-06 15:17 | 33.07777 | -112.58518 | 32018 ft | 385 kts | 284° |
| 2026-05-06 15:18 | 33.09470 | -112.64590 | 32031 ft | 385 kts | 284° |
| 2026-05-06 15:18 | 33.10882 | -112.69641 | 32034 ft | 386 kts | 285° |
| 2026-05-06 15:19 | 33.12877 | -112.76790 | 32036 ft | 393 kts | 286° |
| 2026-05-06 15:19 | 33.13084 | -112.77531 | 32036 ft | 393 kts | 286° |
| 2026-05-06 15:20 | 33.14720 | -112.83401 | 32036 ft | 398 kts | 287° |
| 2026-05-06 15:20 | 33.16462 | -112.89666 | 31905 ft | 402 kts | 287° |
| 2026-05-06 15:20 | 33.17340 | -112.92829 | 31528 ft | 400 kts | 287° |
| 2026-05-06 15:21 | 33.18218 | -112.95994 | 30964 ft | 403 kts | 287° |
| 2026-05-06 15:21 | 33.19106 | -112.99204 | 30305 ft | 407 kts | 288° |
| 2026-05-06 15:21 | 33.19989 | -113.02393 | 29575 ft | 411 kts | 288° |
| 2026-05-06 15:21 | 33.20890 | -113.05653 | 28878 ft | 413 kts | 288° |
| 2026-05-06 15:22 | 33.21794 | -113.08926 | 28179 ft | 416 kts | 289° |
| 2026-05-06 15:22 | 33.22703 | -113.12224 | 27455 ft | 421 kts | 289° |
| 2026-05-06 15:22 | 33.23630 | -113.15589 | 26692 ft | 427 kts | 290° |
| 2026-05-06 15:22 | 33.24550 | -113.18932 | 25917 ft | 427 kts | 290° |
| 2026-05-06 15:23 | 33.25478 | -113.22310 | 25337 ft | 428 kts | 291° |
| 2026-05-06 15:23 | 33.26413 | -113.25711 | 24758 ft | 431 kts | 292° |
| 2026-05-06 15:23 | 33.27345 | -113.29112 | 24155 ft | 429 kts | 292° |
| 2026-05-06 15:23 | 33.28259 | -113.32458 | 23540 ft | 426 kts | 292° |
| 2026-05-06 15:24 | 33.29179 | -113.35826 | 22857 ft | 422 kts | 292° |
| 2026-05-06 15:24 | 33.30087 | -113.39155 | 22285 ft | 417 kts | 291° |
| 2026-05-06 15:24 | 33.30982 | -113.42436 | 21706 ft | 412 kts | 291° |
| 2026-05-06 15:24 | 33.31858 | -113.45655 | 21125 ft | 408 kts | 291° |
| 2026-05-06 15:25 | 33.32732 | -113.48864 | 20559 ft | 404 kts | 291° |
| 2026-05-06 15:25 | 33.33596 | -113.52043 | 19985 ft | 399 kts | 291° |
| 2026-05-06 15:25 | 33.34449 | -113.55186 | 19423 ft | 394 kts | 290° |
| 2026-05-06 15:25 | 33.35292 | -113.58290 | 18838 ft | 389 kts | 290° |
| 2026-05-06 15:26 | 33.36121 | -113.61352 | 18273 ft | 384 kts | 290° |
| 2026-05-06 15:26 | 33.36941 | -113.64381 | 17664 ft | 380 kts | 290° |
| 2026-05-06 15:26 | 33.37740 | -113.67335 | 17112 ft | 376 kts | 290° |
| 2026-05-06 15:26 | 33.38544 | -113.70312 | 16577 ft | 373 kts | 290° |
| 2026-05-06 15:27 | 33.39334 | -113.73240 | 16029 ft | 369 kts | 290° |
| 2026-05-06 15:27 | 33.40121 | -113.76163 | 15488 ft | 365 kts | 290° |
| 2026-05-06 15:27 | 33.40890 | -113.79019 | 14958 ft | 362 kts | 290° |
| 2026-05-06 15:27 | 33.41662 | -113.81889 | 14407 ft | 359 kts | 289° |
| 2026-05-06 15:28 | 33.42425 | -113.84729 | 13877 ft | 356 kts | 289° |
| 2026-05-06 15:28 | 33.43174 | -113.87520 | 13331 ft | 354 kts | 289° |
| 2026-05-06 15:28 | 33.43925 | -113.90320 | 12806 ft | 351 kts | 289° |
| 2026-05-06 15:28 | 33.44669 | -113.93100 | 12213 ft | 349 kts | 289° |
| 2026-05-06 15:29 | 33.45410 | -113.95869 | 11689 ft | 347 kts | 290° |
| 2026-05-06 15:29 | 33.46144 | -113.98615 | 11173 ft | 345 kts | 290° |
| 2026-05-06 15:29 | 33.46855 | -114.01281 | 10861 ft | 332 kts | 290° |
| 2026-05-06 15:29 | 33.47535 | -114.03843 | 10776 ft | 310 kts | 290° |
| 2026-05-06 15:30 | 33.48175 | -114.06249 | 10679 ft | 299 kts | 290° |
| 2026-05-06 15:30 | 33.48812 | -114.08634 | 10341 ft | 301 kts | 290° |
| 2026-05-06 15:30 | 33.49437 | -114.10981 | 9933 ft | 298 kts | 290° |
| 2026-05-06 15:30 | 33.50069 | -114.13355 | 9531 ft | 296 kts | 290° |
| 2026-05-06 15:31 | 33.50694 | -114.15705 | 9161 ft | 295 kts | 290° |
| 2026-05-06 15:31 | 33.51317 | -114.18047 | 8790 ft | 294 kts | 290° |
| 2026-05-06 15:31 | 33.51934 | -114.20376 | 8426 ft | 292 kts | 289° |
| 2026-05-06 15:32 | 33.53152 | -114.24971 | 7691 ft | 289 kts | 289° |
| 2026-05-06 15:32 | 33.53758 | -114.27265 | 7330 ft | 287 kts | 289° |
| 2026-05-06 15:32 | 33.54360 | -114.29542 | 6971 ft | 286 kts | 288° |
| 2026-05-06 15:32 | 33.54957 | -114.31803 | 6596 ft | 284 kts | 288° |
| 2026-05-06 15:33 | 33.55552 | -114.34054 | 6230 ft | 281 kts | 288° |
| 2026-05-06 15:33 | 33.56140 | -114.36285 | 5856 ft | 279 kts | 288° |
| 2026-05-06 15:33 | 33.56722 | -114.38469 | 5507 ft | 277 kts | 290° |
| 2026-05-06 15:33 | 33.57600 | -114.40488 | 5186 ft | 273 kts | 309° |
| 2026-05-06 15:34 | 33.58942 | -114.42083 | 4993 ft | 269 kts | 320° |
| 2026-05-06 15:34 | 33.60360 | -114.43497 | 4885 ft | 262 kts | 321° |
| 2026-05-06 15:34 | 33.61712 | -114.44812 | 4301 ft | 239 kts | 322° |
| 2026-05-06 15:34 | 33.62948 | -114.46014 | 3823 ft | 218 kts | 321° |
| 2026-05-06 15:35 | 33.64000 | -114.47276 | 3555 ft | 210 kts | 309° |
| 2026-05-06 15:35 | 33.64635 | -114.48796 | 3272 ft | 202 kts | 287° |
| 2026-05-06 15:35 | 33.64749 | -114.50435 | 3156 ft | 193 kts | 268° |
| 2026-05-06 15:35 | 33.64561 | -114.51978 | 3069 ft | 181 kts | 262° |
| 2026-05-06 15:36 | 33.64326 | -114.53407 | 2997 ft | 173 kts | 262° |
| 2026-05-06 15:36 | 33.64090 | -114.54811 | 2949 ft | 171 kts | 261° |
| 2026-05-06 15:36 | 33.63855 | -114.56217 | 2792 ft | 172 kts | 261° |
| 2026-05-06 15:36 | 33.63620 | -114.57631 | 2527 ft | 174 kts | 261° |
| 2026-05-06 15:37 | 33.63390 | -114.59040 | 2288 ft | 168 kts | 261° |
| 2026-05-06 15:37 | 33.63174 | -114.60343 | 2072 ft | 153 kts | 260° |
| 2026-05-06 15:37 | 33.62972 | -114.61568 | 1854 ft | 147 kts | 260° |
| 2026-05-06 15:37 | 33.62779 | -114.62745 | 1654 ft | 146 kts | 259° |
| 2026-05-06 15:38 | 33.62586 | -114.63934 | 1458 ft | 144 kts | 259° |
| 2026-05-06 15:38 | 33.62389 | -114.65115 | 1249 ft | 144 kts | 258° |
| 2026-05-06 15:38 | 33.62180 | -114.66290 | 1089 ft | 144 kts | 258° |
| 2026-05-06 15:38 | 33.61963 | -114.67473 | 992 ft | 144 kts | 257° |
| 2026-05-06 15:39 | 33.61741 | -114.68638 | 823 ft | 143 kts | 258° |
| 2026-05-06 15:39 | 33.61648 | -114.69806 | 585 ft | 143 kts | 270° |
| 2026-05-06 15:39 | 33.61655 | -114.70997 | 411 ft | 140 kts | 270° |
| 2026-05-06 15:39 | 33.61657 | -114.71821 | 419 ft | 55 kts | 270° |
| 2026-05-06 15:40 | 33.61658 | -114.72104 | 411 ft | 28 kts | 270° |
| 2026-05-06 15:40 | 33.61649 | -114.72278 | 417 ft | 9 kts | 229° |
| 2026-05-06 15:40 | 33.61583 | -114.72288 | 413 ft | 10 kts | 180° |
| 2026-05-06 15:40 | 33.61520 | -114.72258 | 412 ft | 10 kts | 107° |
| 2026-05-06 15:41 | 33.61514 | -114.72174 | 419 ft | 11 kts | 89° |
| 2026-05-06 15:41 | 33.61515 | -114.72077 | 416 ft | 13 kts | 88° |
| 2026-05-06 15:41 | 33.61515 | -114.71961 | 418 ft | 15 kts | 90° |
| 2026-05-06 15:41 | 33.61515 | -114.71835 | 417 ft | 15 kts | 90° |
| 2026-05-06 15:42 | 33.61514 | -114.71711 | 420 ft | 16 kts | 91° |
| 2026-05-06 15:42 | 33.61513 | -114.71585 | 417 ft | 12 kts | 90° |
| 2026-05-06 15:42 | 33.61515 | -114.71499 | 415 ft | 10 kts | 92° |
| 2026-05-06 15:42 | 33.61486 | -114.71462 | 415 ft | 7 kts | 141° |
| 2026-05-06 15:43 | 33.61439 | -114.71411 | 415 ft | 10 kts | 122° |
| 2026-05-06 15:43 | 33.61434 | -114.71348 | 413 ft | 0 kts | 90° |